LPE2392 SPJC-SKRG
Flight info
| Callsign | LPE2392 |
|---|---|
| Flight time | 2h 33m |
| Altitude | 33000 |
| Route | AMVEX UL305 TAP UL342 PLG DCT GIR/N0458F340 DCT NIRSO NIRSO3C |
| Aircraft | A320/M-SDE3FGHIRWY/LB1 |
Departure
| Time | 2026-05-08 16:24 |
|---|---|
| Airport | Jorge Chávez International Airport (SPJC) |
Arrival
| Time | 2026-05-08 18:58 |
|---|---|
| Airport | Jose Maria Córdova International Airport (SKRG) |
| Time | Latitude | Longitude | Altitude | Speed | Heading |
|---|---|---|---|---|---|
| 2026-05-08 15:55 | -12.02751 | -77.11659 | 84 ft | 0 kts | 247° |
| 2026-05-08 16:14 | -12.02750 | -77.11658 | 80 ft | 2 kts | 246° |
| 2026-05-08 16:14 | -12.02738 | -77.11635 | 83 ft | 4 kts | 231° |
| 2026-05-08 16:14 | -12.02719 | -77.11617 | 84 ft | 4 kts | 199° |
| 2026-05-08 16:14 | -12.02697 | -77.11616 | 83 ft | 1 kts | 154° |
| 2026-05-08 16:18 | -12.02707 | -77.11610 | 82 ft | 2 kts | 143° |
| 2026-05-08 16:19 | -12.02719 | -77.11590 | 84 ft | 6 kts | 114° |
| 2026-05-08 16:19 | -12.02705 | -77.11545 | 83 ft | 9 kts | 65° |
| 2026-05-08 16:19 | -12.02675 | -77.11479 | 85 ft | 10 kts | 64° |
| 2026-05-08 16:19 | -12.02653 | -77.11423 | 84 ft | 7 kts | 67° |
| 2026-05-08 16:20 | -12.02611 | -77.11401 | 82 ft | 9 kts | 351° |
| 2026-05-08 16:20 | -12.02539 | -77.11435 | 83 ft | 14 kts | 334° |
| 2026-05-08 16:20 | -12.02447 | -77.11481 | 82 ft | 16 kts | 334° |
| 2026-05-08 16:20 | -12.02339 | -77.11533 | 70 ft | 18 kts | 335° |
| 2026-05-08 16:21 | -12.02219 | -77.11592 | 70 ft | 21 kts | 333° |
| 2026-05-08 16:21 | -12.02083 | -77.11659 | 66 ft | 23 kts | 334° |
| 2026-05-08 16:21 | -12.01946 | -77.11727 | 66 ft | 22 kts | 334° |
| 2026-05-08 16:21 | -12.01809 | -77.11793 | 63 ft | 20 kts | 335° |
| 2026-05-08 16:22 | -12.01701 | -77.11848 | 59 ft | 17 kts | 333° |
| 2026-05-08 16:22 | -12.01617 | -77.11892 | 63 ft | 12 kts | 334° |
| 2026-05-08 16:22 | -12.01568 | -77.11877 | 61 ft | 6 kts | 48° |
| 2026-05-08 16:22 | -12.01550 | -77.11844 | 63 ft | 4 kts | 64° |
| 2026-05-08 16:23 | -12.01539 | -77.11821 | 63 ft | 3 kts | 63° |
| 2026-05-08 16:23 | -12.01523 | -77.11789 | 63 ft | 7 kts | 62° |
| 2026-05-08 16:23 | -12.01522 | -77.11762 | 62 ft | 0 kts | 153° |
| 2026-05-08 16:23 | -12.01526 | -77.11760 | 66 ft | 6 kts | 155° |
| 2026-05-08 16:24 | -12.01768 | -77.11641 | 57 ft | 80 kts | 154° |
| 2026-05-08 16:24 | -12.02500 | -77.11280 | 90 ft | 150 kts | 154° |
| 2026-05-08 16:24 | -12.03560 | -77.10747 | 481 ft | 178 kts | 154° |
| 2026-05-08 16:24 | -12.04681 | -77.10195 | 1409 ft | 177 kts | 155° |
| 2026-05-08 16:25 | -12.05796 | -77.09649 | 1961 ft | 184 kts | 155° |
| 2026-05-08 16:25 | -12.07023 | -77.09046 | 2196 ft | 207 kts | 155° |
| 2026-05-08 16:25 | -12.08389 | -77.08375 | 2473 ft | 229 kts | 154° |
| 2026-05-08 16:25 | -12.09900 | -77.07631 | 2817 ft | 253 kts | 154° |
| 2026-05-08 16:26 | -12.11530 | -77.06826 | 3432 ft | 266 kts | 154° |
| 2026-05-08 16:26 | -12.13226 | -77.06075 | 4159 ft | 272 kts | 167° |
| 2026-05-08 16:26 | -12.15132 | -77.06145 | 4896 ft | 276 kts | 201° |
| 2026-05-08 16:26 | -12.16668 | -77.07280 | 5585 ft | 277 kts | 236° |
| 2026-05-08 16:27 | -12.17330 | -77.09070 | 6289 ft | 277 kts | 268° |
| 2026-05-08 16:27 | -12.17093 | -77.11009 | 6990 ft | 278 kts | 291° |
| 2026-05-08 16:27 | -12.16108 | -77.12693 | 7691 ft | 279 kts | 314° |
| 2026-05-08 16:27 | -12.14518 | -77.13823 | 8382 ft | 282 kts | 338° |
| 2026-05-08 16:28 | -12.12592 | -77.14185 | 9082 ft | 285 kts | 0° |
| 2026-05-08 16:28 | -12.10599 | -77.14125 | 9810 ft | 288 kts | 1° |
| 2026-05-08 16:28 | -12.08567 | -77.14054 | 10230 ft | 301 kts | 1° |
| 2026-05-08 16:28 | -12.06400 | -77.13978 | 10351 ft | 324 kts | 1° |
| 2026-05-08 16:29 | -12.04072 | -77.13896 | 10543 ft | 342 kts | 1° |
| 2026-05-08 16:29 | -12.01666 | -77.13811 | 11007 ft | 349 kts | 1° |
| 2026-05-08 16:29 | -11.99222 | -77.13727 | 11598 ft | 353 kts | 2° |
| 2026-05-08 16:29 | -11.96751 | -77.13645 | 12144 ft | 358 kts | 2° |
| 2026-05-08 16:30 | -11.94249 | -77.13562 | 12660 ft | 363 kts | 2° |
| 2026-05-08 16:30 | -11.91712 | -77.13479 | 13189 ft | 367 kts | 2° |
| 2026-05-08 16:30 | -11.89144 | -77.13400 | 13709 ft | 371 kts | 2° |
| 2026-05-08 16:30 | -11.86546 | -77.13319 | 13942 ft | 375 kts | 2° |
| 2026-05-08 16:31 | -11.83940 | -77.13234 | 13996 ft | 374 kts | 2° |
| 2026-05-08 16:31 | -11.81342 | -77.13148 | 14005 ft | 374 kts | 2° |
| 2026-05-08 16:31 | -11.78735 | -77.13063 | 14015 ft | 375 kts | 2° |
| 2026-05-08 16:31 | -11.76117 | -77.12979 | 14458 ft | 377 kts | 3° |
| 2026-05-08 16:32 | -11.73490 | -77.12894 | 14979 ft | 379 kts | 3° |
| 2026-05-08 16:32 | -11.70846 | -77.12806 | 15492 ft | 381 kts | 3° |
| 2026-05-08 16:32 | -11.68188 | -77.12716 | 15971 ft | 384 kts | 3° |
| 2026-05-08 16:32 | -11.65512 | -77.12627 | 16447 ft | 386 kts | 3° |
| 2026-05-08 16:33 | -11.62816 | -77.12537 | 16922 ft | 389 kts | 3° |
| 2026-05-08 16:33 | -11.60139 | -77.12450 | 17391 ft | 391 kts | 3° |
| 2026-05-08 16:33 | -11.57410 | -77.12363 | 17848 ft | 394 kts | 3° |
| 2026-05-08 16:33 | -11.54668 | -77.12275 | 18301 ft | 396 kts | 3° |
| 2026-05-08 16:34 | -11.51906 | -77.12189 | 18686 ft | 398 kts | 3° |
| 2026-05-08 16:34 | -11.49127 | -77.12098 | 19056 ft | 401 kts | 3° |
| 2026-05-08 16:34 | -11.46330 | -77.12004 | 19426 ft | 403 kts | 3° |
| 2026-05-08 16:34 | -11.43516 | -77.11909 | 19808 ft | 406 kts | 3° |
| 2026-05-08 16:35 | -11.40690 | -77.11815 | 20182 ft | 408 kts | 3° |
| 2026-05-08 16:35 | -11.37842 | -77.11722 | 20548 ft | 411 kts | 2° |
| 2026-05-08 16:35 | -11.34977 | -77.11633 | 20914 ft | 413 kts | 3° |
| 2026-05-08 16:35 | -11.32089 | -77.11544 | 21261 ft | 416 kts | 3° |
| 2026-05-08 16:36 | -11.29194 | -77.11455 | 21626 ft | 418 kts | 3° |
| 2026-05-08 16:36 | -11.26288 | -77.11190 | 21968 ft | 420 kts | 11° |
| 2026-05-08 16:36 | -11.23470 | -77.10400 | 22299 ft | 421 kts | 21° |
| 2026-05-08 16:36 | -11.20834 | -77.09097 | 22616 ft | 424 kts | 32° |
| 2026-05-08 16:37 | -11.18392 | -77.07401 | 22968 ft | 426 kts | 36° |
| 2026-05-08 16:37 | -11.15951 | -77.05665 | 23296 ft | 429 kts | 35° |
| 2026-05-08 16:37 | -11.13493 | -77.03927 | 23601 ft | 432 kts | 35° |
| 2026-05-08 16:37 | -11.11009 | -77.02179 | 23882 ft | 435 kts | 34° |
| 2026-05-08 16:38 | -11.08515 | -77.00425 | 24128 ft | 438 kts | 34° |
| 2026-05-08 16:38 | -11.05995 | -76.98649 | 24371 ft | 442 kts | 34° |
| 2026-05-08 16:38 | -11.03466 | -76.96863 | 24648 ft | 444 kts | 34° |
| 2026-05-08 16:38 | -11.00922 | -76.95065 | 24912 ft | 447 kts | 34° |
| 2026-05-08 16:39 | -10.98363 | -76.93252 | 25210 ft | 449 kts | 34° |
| 2026-05-08 16:39 | -10.95789 | -76.91429 | 25458 ft | 452 kts | 34° |
| 2026-05-08 16:39 | -10.93239 | -76.89627 | 25728 ft | 453 kts | 34° |
| 2026-05-08 16:39 | -10.90641 | -76.87793 | 25977 ft | 456 kts | 34° |
| 2026-05-08 16:40 | -10.88030 | -76.85952 | 26216 ft | 458 kts | 34° |
| 2026-05-08 16:40 | -10.85405 | -76.84104 | 26477 ft | 461 kts | 34° |
| 2026-05-08 16:40 | -10.82719 | -76.82307 | 26727 ft | 463 kts | 28° |
| 2026-05-08 16:40 | -10.79804 | -76.80916 | 26964 ft | 464 kts | 19° |
| 2026-05-08 16:41 | -10.76697 | -76.80032 | 27198 ft | 465 kts | 9° |
| 2026-05-08 16:41 | -10.73487 | -76.79610 | 27439 ft | 466 kts | 4° |
| 2026-05-08 16:41 | -10.70256 | -76.79261 | 27719 ft | 468 kts | 4° |
| 2026-05-08 16:42 | -10.63750 | -76.78548 | 28203 ft | 473 kts | 4° |
| 2026-05-08 16:42 | -10.60467 | -76.78186 | 28416 ft | 475 kts | 4° |
| 2026-05-08 16:42 | -10.57173 | -76.77822 | 28651 ft | 478 kts | 4° |
| 2026-05-08 16:42 | -10.53859 | -76.77454 | 28874 ft | 480 kts | 4° |
| 2026-05-08 16:43 | -10.50532 | -76.77083 | 29073 ft | 482 kts | 4° |
| 2026-05-08 16:43 | -10.47197 | -76.76711 | 29285 ft | 484 kts | 4° |
| 2026-05-08 16:43 | -10.43840 | -76.76338 | 29494 ft | 486 kts | 4° |
| 2026-05-08 16:43 | -10.40471 | -76.75965 | 29715 ft | 488 kts | 4° |
| 2026-05-08 16:44 | -10.37092 | -76.75593 | 29928 ft | 490 kts | 3° |
| 2026-05-08 16:44 | -10.33694 | -76.75219 | 30144 ft | 492 kts | 4° |
| 2026-05-08 16:44 | -10.30282 | -76.74847 | 30319 ft | 494 kts | 3° |
| 2026-05-08 16:44 | -10.26867 | -76.74475 | 30545 ft | 494 kts | 3° |
| 2026-05-08 16:45 | -10.23449 | -76.74100 | 30797 ft | 493 kts | 3° |
| 2026-05-08 16:45 | -10.20041 | -76.73725 | 31058 ft | 493 kts | 3° |
| 2026-05-08 16:45 | -10.16674 | -76.73351 | 31324 ft | 493 kts | 3° |
| 2026-05-08 16:45 | -10.13224 | -76.72966 | 31609 ft | 492 kts | 2° |
| 2026-05-08 16:46 | -10.09876 | -76.72595 | 31765 ft | 490 kts | 2° |
| 2026-05-08 16:46 | -10.06481 | -76.72222 | 31937 ft | 491 kts | 2° |
| 2026-05-08 16:46 | -10.03079 | -76.71850 | 32174 ft | 491 kts | 2° |
| 2026-05-08 16:46 | -9.99681 | -76.71481 | 32440 ft | 491 kts | 2° |
| 2026-05-08 16:47 | -9.96283 | -76.71110 | 32686 ft | 491 kts | 2° |
| 2026-05-08 16:47 | -9.92879 | -76.70735 | 32955 ft | 491 kts | 2° |
| 2026-05-08 16:47 | -9.89489 | -76.70361 | 33223 ft | 490 kts | 2° |
| 2026-05-08 16:47 | -9.86101 | -76.69990 | 33532 ft | 489 kts | 2° |
| 2026-05-08 16:48 | -9.82718 | -76.69618 | 33821 ft | 489 kts | 1° |
| 2026-05-08 16:48 | -9.79339 | -76.69247 | 34067 ft | 489 kts | 1° |
| 2026-05-08 16:48 | -9.75951 | -76.68874 | 34225 ft | 488 kts | 1° |
| 2026-05-08 16:49 | -9.69231 | -76.68134 | 34263 ft | 485 kts | 1° |
| 2026-05-08 16:49 | -9.62516 | -76.67403 | 34261 ft | 485 kts | 1° |
| 2026-05-08 16:50 | -9.55802 | -76.66675 | 34242 ft | 485 kts | 2° |
| 2026-05-08 16:50 | -9.49095 | -76.65942 | 34247 ft | 485 kts | 2° |
| 2026-05-08 16:51 | -9.42374 | -76.65203 | 34222 ft | 486 kts | 2° |
| 2026-05-08 16:51 | -9.35664 | -76.64463 | 34193 ft | 485 kts | 2° |
| 2026-05-08 16:52 | -9.28956 | -76.63732 | 34191 ft | 484 kts | 2° |
| 2026-05-08 16:52 | -9.22256 | -76.63003 | 34152 ft | 485 kts | 2° |
| 2026-05-08 16:53 | -9.12177 | -76.61897 | 34136 ft | 487 kts | 2° |
| 2026-05-08 16:53 | -9.05490 | -76.61157 | 34138 ft | 487 kts | 2° |
| 2026-05-08 16:54 | -8.98757 | -76.60420 | 34119 ft | 487 kts | 2° |
| 2026-05-08 16:54 | -8.92027 | -76.59694 | 34116 ft | 487 kts | 2° |
| 2026-05-08 16:55 | -8.85295 | -76.58967 | 34119 ft | 487 kts | 2° |
| 2026-05-08 16:55 | -8.78562 | -76.58229 | 34099 ft | 486 kts | 2° |
| 2026-05-08 16:56 | -8.71830 | -76.57495 | 34149 ft | 487 kts | 2° |
| 2026-05-08 16:56 | -8.68465 | -76.57127 | 34342 ft | 487 kts | 2° |
| 2026-05-08 16:56 | -8.65104 | -76.56758 | 34605 ft | 485 kts | 2° |
| 2026-05-08 16:57 | -8.61792 | -76.56396 | 34874 ft | 484 kts | 2° |
| 2026-05-08 16:57 | -8.58412 | -76.56028 | 35049 ft | 482 kts | 2° |
| 2026-05-08 16:57 | -8.51757 | -76.55304 | 35041 ft | 480 kts | 1° |
| 2026-05-08 16:58 | -8.45113 | -76.54577 | 35043 ft | 480 kts | 2° |
| 2026-05-08 16:58 | -8.38478 | -76.53849 | 35021 ft | 479 kts | 2° |
| 2026-05-08 16:59 | -8.31842 | -76.53131 | 35021 ft | 480 kts | 2° |
| 2026-05-08 16:59 | -8.25208 | -76.52416 | 35002 ft | 480 kts | 2° |
| 2026-05-08 17:00 | -8.18578 | -76.51696 | 35002 ft | 479 kts | 2° |
| 2026-05-08 17:00 | -8.11985 | -76.50977 | 35002 ft | 479 kts | 2° |
| 2026-05-08 17:01 | -8.05351 | -76.50249 | 34957 ft | 479 kts | 2° |
| 2026-05-08 17:01 | -7.98706 | -76.49524 | 34951 ft | 480 kts | 2° |
| 2026-05-08 17:02 | -7.92064 | -76.48802 | 34946 ft | 481 kts | 2° |
| 2026-05-08 17:02 | -7.85413 | -76.48080 | 34951 ft | 481 kts | 2° |
| 2026-05-08 17:03 | -7.78753 | -76.47359 | 34953 ft | 481 kts | 2° |
| 2026-05-08 17:03 | -7.72091 | -76.46637 | 34953 ft | 481 kts | 2° |
| 2026-05-08 17:04 | -7.65432 | -76.45917 | 34945 ft | 481 kts | 2° |
| 2026-05-08 17:04 | -7.58775 | -76.45193 | 34946 ft | 481 kts | 2° |
| 2026-05-08 17:05 | -7.53248 | -76.44591 | 34947 ft | 481 kts | 2° |
| 2026-05-08 17:05 | -7.46593 | -76.43874 | 34950 ft | 481 kts | 2° |
| 2026-05-08 17:06 | -7.39938 | -76.43153 | 34949 ft | 481 kts | 2° |
| 2026-05-08 17:06 | -7.33291 | -76.42429 | 34964 ft | 481 kts | 2° |
| 2026-05-08 17:07 | -7.26645 | -76.41708 | 34962 ft | 480 kts | 2° |
| 2026-05-08 17:07 | -7.20007 | -76.40986 | 34949 ft | 480 kts | 2° |
| 2026-05-08 17:08 | -7.13374 | -76.40259 | 34944 ft | 479 kts | 2° |
| 2026-05-08 17:08 | -7.06748 | -76.39543 | 34930 ft | 479 kts | 2° |
| 2026-05-08 17:09 | -7.00173 | -76.38843 | 34926 ft | 478 kts | 2° |
| 2026-05-08 17:09 | -6.93549 | -76.38133 | 34918 ft | 478 kts | 3° |
| 2026-05-08 17:10 | -6.86937 | -76.37409 | 34920 ft | 478 kts | 3° |
| 2026-05-08 17:10 | -6.80339 | -76.36691 | 34919 ft | 477 kts | 2° |
| 2026-05-08 17:11 | -6.73731 | -76.35978 | 34919 ft | 477 kts | 2° |
| 2026-05-08 17:11 | -6.67131 | -76.35263 | 34919 ft | 477 kts | 4° |
| 2026-05-08 17:12 | -6.60616 | -76.33842 | 34922 ft | 480 kts | 11° |
| 2026-05-08 17:12 | -6.54126 | -76.32248 | 34924 ft | 480 kts | 11° |
| 2026-05-08 17:13 | -6.47641 | -76.30663 | 34925 ft | 480 kts | 11° |
| 2026-05-08 17:13 | -6.41160 | -76.29073 | 34924 ft | 480 kts | 11° |
| 2026-05-08 17:14 | -6.34670 | -76.27483 | 34926 ft | 480 kts | 11° |
| 2026-05-08 17:14 | -6.28228 | -76.25909 | 34927 ft | 480 kts | 11° |
| 2026-05-08 17:15 | -6.21749 | -76.24322 | 34936 ft | 479 kts | 11° |
| 2026-05-08 17:15 | -6.15284 | -76.22739 | 34938 ft | 478 kts | 11° |
| 2026-05-08 17:16 | -6.08830 | -76.21161 | 34940 ft | 477 kts | 11° |
| 2026-05-08 17:16 | -6.02385 | -76.19581 | 34935 ft | 477 kts | 11° |
| 2026-05-08 17:17 | -5.95941 | -76.17996 | 34931 ft | 477 kts | 11° |
| 2026-05-08 17:17 | -5.89497 | -76.16420 | 34931 ft | 476 kts | 11° |
| 2026-05-08 17:18 | -5.83057 | -76.14848 | 34939 ft | 476 kts | 11° |
| 2026-05-08 17:18 | -5.76621 | -76.13273 | 34935 ft | 476 kts | 11° |
| 2026-05-08 17:19 | -5.70176 | -76.11702 | 34934 ft | 477 kts | 11° |
| 2026-05-08 17:19 | -5.63729 | -76.10127 | 34933 ft | 477 kts | 11° |
| 2026-05-08 17:20 | -5.57280 | -76.08551 | 34934 ft | 477 kts | 11° |
| 2026-05-08 17:20 | -5.50833 | -76.06970 | 34934 ft | 477 kts | 11° |
| 2026-05-08 17:21 | -5.44389 | -76.05392 | 34941 ft | 476 kts | 11° |
| 2026-05-08 17:21 | -5.37948 | -76.03818 | 34941 ft | 476 kts | 11° |
| 2026-05-08 17:22 | -5.31560 | -76.02257 | 34943 ft | 475 kts | 11° |
| 2026-05-08 17:22 | -5.25138 | -76.00695 | 34941 ft | 475 kts | 11° |
| 2026-05-08 17:23 | -5.18710 | -75.99127 | 34933 ft | 475 kts | 11° |
| 2026-05-08 17:23 | -5.12289 | -75.97562 | 34934 ft | 475 kts | 11° |
| 2026-05-08 17:24 | -5.05876 | -75.95991 | 34938 ft | 474 kts | 11° |
| 2026-05-08 17:24 | -4.99467 | -75.94426 | 34942 ft | 474 kts | 11° |
| 2026-05-08 17:25 | -4.93050 | -75.92864 | 34941 ft | 474 kts | 11° |
| 2026-05-08 17:25 | -4.86637 | -75.91292 | 34942 ft | 474 kts | 11° |
| 2026-05-08 17:26 | -4.80224 | -75.89729 | 34939 ft | 474 kts | 11° |
| 2026-05-08 17:26 | -4.73807 | -75.88171 | 34944 ft | 473 kts | 11° |
| 2026-05-08 17:27 | -4.67414 | -75.86614 | 34944 ft | 473 kts | 11° |
| 2026-05-08 17:27 | -4.61061 | -75.85063 | 34944 ft | 473 kts | 11° |
| 2026-05-08 17:28 | -4.54671 | -75.83501 | 34939 ft | 473 kts | 11° |
| 2026-05-08 17:28 | -4.48278 | -75.81939 | 34939 ft | 473 kts | 11° |
| 2026-05-08 17:29 | -4.41892 | -75.80385 | 34941 ft | 472 kts | 11° |
| 2026-05-08 17:29 | -4.35499 | -75.78831 | 34942 ft | 472 kts | 11° |
| 2026-05-08 17:30 | -4.29119 | -75.77279 | 34933 ft | 472 kts | 11° |
| 2026-05-08 17:30 | -4.22738 | -75.75722 | 34925 ft | 472 kts | 11° |
| 2026-05-08 17:31 | -4.16355 | -75.74171 | 34927 ft | 472 kts | 11° |
| 2026-05-08 17:31 | -4.09962 | -75.72615 | 34927 ft | 472 kts | 11° |
| 2026-05-08 17:32 | -4.03582 | -75.71060 | 34919 ft | 472 kts | 11° |
| 2026-05-08 17:32 | -3.97190 | -75.69511 | 34922 ft | 472 kts | 11° |
| 2026-05-08 17:33 | -3.90845 | -75.67974 | 34923 ft | 473 kts | 11° |
| 2026-05-08 17:33 | -3.84452 | -75.66413 | 34925 ft | 473 kts | 11° |
| 2026-05-08 17:34 | -3.78045 | -75.64853 | 34930 ft | 473 kts | 11° |
| 2026-05-08 17:34 | -3.71642 | -75.63295 | 34931 ft | 474 kts | 11° |
| 2026-05-08 17:35 | -3.65245 | -75.61740 | 34937 ft | 473 kts | 11° |
| 2026-05-08 17:35 | -3.58843 | -75.60184 | 34938 ft | 473 kts | 11° |
| 2026-05-08 17:36 | -3.52444 | -75.58632 | 34939 ft | 473 kts | 11° |
| 2026-05-08 17:36 | -3.46056 | -75.57076 | 34937 ft | 472 kts | 11° |
| 2026-05-08 17:37 | -3.39668 | -75.55528 | 34933 ft | 472 kts | 11° |
| 2026-05-08 17:37 | -3.33279 | -75.53984 | 34932 ft | 472 kts | 11° |
| 2026-05-08 17:38 | -3.26887 | -75.52436 | 34937 ft | 472 kts | 11° |
| 2026-05-08 17:38 | -3.20503 | -75.50883 | 34938 ft | 472 kts | 11° |
| 2026-05-08 17:39 | -3.14122 | -75.49336 | 34937 ft | 472 kts | 11° |
| 2026-05-08 17:39 | -3.07775 | -75.47793 | 34937 ft | 472 kts | 11° |
| 2026-05-08 17:40 | -3.01395 | -75.46247 | 34940 ft | 472 kts | 11° |
| 2026-05-08 17:40 | -2.95017 | -75.44697 | 34935 ft | 472 kts | 11° |
| 2026-05-08 17:41 | -2.88641 | -75.43147 | 34939 ft | 471 kts | 11° |
| 2026-05-08 17:41 | -2.82259 | -75.41596 | 34933 ft | 471 kts | 11° |
| 2026-05-08 17:42 | -2.75883 | -75.40047 | 34927 ft | 472 kts | 11° |
| 2026-05-08 17:42 | -2.69503 | -75.38492 | 34925 ft | 472 kts | 11° |
| 2026-05-08 17:43 | -2.63117 | -75.36947 | 34924 ft | 472 kts | 11° |
| 2026-05-08 17:43 | -2.56731 | -75.35406 | 34926 ft | 472 kts | 11° |
| 2026-05-08 17:44 | -2.50393 | -75.33864 | 34927 ft | 472 kts | 12° |
| 2026-05-08 17:44 | -2.44012 | -75.32310 | 34928 ft | 472 kts | 12° |
| 2026-05-08 17:45 | -2.37636 | -75.30771 | 34930 ft | 471 kts | 11° |
| 2026-05-08 17:45 | -2.31254 | -75.29232 | 34929 ft | 471 kts | 12° |
| 2026-05-08 17:46 | -2.24883 | -75.27680 | 34923 ft | 471 kts | 12° |
| 2026-05-08 17:46 | -2.18513 | -75.26132 | 34922 ft | 471 kts | 12° |
| 2026-05-08 17:47 | -2.12138 | -75.24588 | 34929 ft | 471 kts | 12° |
| 2026-05-08 17:47 | -2.06850 | -75.23308 | 34928 ft | 470 kts | 12° |
| 2026-05-08 17:48 | -1.99412 | -75.21507 | 34929 ft | 470 kts | 12° |
| 2026-05-08 17:48 | -1.93063 | -75.19963 | 34922 ft | 470 kts | 12° |
| 2026-05-08 17:49 | -1.86705 | -75.18425 | 34917 ft | 470 kts | 12° |
| 2026-05-08 17:49 | -1.80349 | -75.16883 | 34924 ft | 470 kts | 12° |
| 2026-05-08 17:50 | -1.74032 | -75.15352 | 34929 ft | 470 kts | 12° |
| 2026-05-08 17:50 | -1.67679 | -75.13823 | 34929 ft | 469 kts | 12° |
| 2026-05-08 17:51 | -1.61337 | -75.12284 | 34927 ft | 469 kts | 12° |
| 2026-05-08 17:51 | -1.54995 | -75.10745 | 34922 ft | 469 kts | 12° |
| 2026-05-08 17:52 | -1.48658 | -75.09216 | 34918 ft | 468 kts | 12° |
| 2026-05-08 17:53 | -1.39163 | -75.06922 | 34920 ft | 468 kts | 12° |
| 2026-05-08 17:53 | -1.32825 | -75.05386 | 34918 ft | 468 kts | 12° |
| 2026-05-08 17:54 | -1.26493 | -75.03846 | 34921 ft | 468 kts | 12° |
| 2026-05-08 17:54 | -1.20169 | -75.02319 | 34920 ft | 468 kts | 12° |
| 2026-05-08 17:55 | -1.13830 | -75.00795 | 34922 ft | 468 kts | 12° |
| 2026-05-08 17:55 | -1.07498 | -74.99261 | 34920 ft | 468 kts | 12° |
| 2026-05-08 17:56 | -1.01162 | -74.97726 | 34920 ft | 469 kts | 12° |
| 2026-05-08 17:56 | -0.94824 | -74.96188 | 34922 ft | 469 kts | 12° |
| 2026-05-08 17:57 | -0.88529 | -74.94663 | 34922 ft | 468 kts | 12° |
| 2026-05-08 17:57 | -0.82196 | -74.93126 | 34922 ft | 468 kts | 12° |
| 2026-05-08 17:58 | -0.75870 | -74.91595 | 34921 ft | 468 kts | 12° |
| 2026-05-08 17:58 | -0.69541 | -74.90070 | 34929 ft | 468 kts | 12° |
| 2026-05-08 17:59 | -0.64280 | -74.88798 | 34926 ft | 468 kts | 12° |
| 2026-05-08 17:59 | -0.57955 | -74.87264 | 34926 ft | 467 kts | 12° |
| 2026-05-08 18:00 | -0.51635 | -74.85730 | 34927 ft | 467 kts | 12° |
| 2026-05-08 18:00 | -0.42152 | -74.83434 | 34928 ft | 467 kts | 12° |
| 2026-05-08 18:01 | -0.35830 | -74.81900 | 34928 ft | 467 kts | 12° |
| 2026-05-08 18:01 | -0.29510 | -74.80371 | 34928 ft | 467 kts | 12° |
| 2026-05-08 18:02 | -0.23187 | -74.78846 | 34924 ft | 467 kts | 12° |
| 2026-05-08 18:02 | -0.16819 | -74.77638 | 34921 ft | 464 kts | 1° |
| 2026-05-08 18:03 | -0.10381 | -74.77706 | 34916 ft | 463 kts | 356° |
| 2026-05-08 18:03 | -0.03946 | -74.77845 | 34915 ft | 463 kts | 356° |
| 2026-05-08 18:04 | 0.02500 | -74.77978 | 34912 ft | 463 kts | 357° |
| 2026-05-08 18:04 | 0.08934 | -74.78107 | 34912 ft | 463 kts | 357° |
| 2026-05-08 18:05 | 0.15377 | -74.78241 | 34913 ft | 463 kts | 356° |
| 2026-05-08 18:05 | 0.21812 | -74.78368 | 34913 ft | 463 kts | 357° |
| 2026-05-08 18:06 | 0.28251 | -74.78498 | 34916 ft | 463 kts | 356° |
| 2026-05-08 18:06 | 0.34645 | -74.78639 | 34916 ft | 463 kts | 356° |
| 2026-05-08 18:07 | 0.41121 | -74.78779 | 34912 ft | 463 kts | 356° |
| 2026-05-08 18:07 | 0.47517 | -74.78912 | 34911 ft | 463 kts | 356° |
| 2026-05-08 18:08 | 0.53959 | -74.79035 | 34913 ft | 463 kts | 356° |
| 2026-05-08 18:08 | 0.60403 | -74.79162 | 34912 ft | 463 kts | 356° |
| 2026-05-08 18:09 | 0.66848 | -74.79293 | 34909 ft | 463 kts | 357° |
| 2026-05-08 18:09 | 0.73291 | -74.79429 | 34908 ft | 463 kts | 357° |
| 2026-05-08 18:10 | 0.79738 | -74.79565 | 34905 ft | 463 kts | 356° |
| 2026-05-08 18:10 | 0.86183 | -74.79695 | 34905 ft | 463 kts | 356° |
| 2026-05-08 18:11 | 0.92632 | -74.79829 | 34907 ft | 463 kts | 356° |
| 2026-05-08 18:11 | 0.99079 | -74.79966 | 34907 ft | 463 kts | 357° |
| 2026-05-08 18:12 | 1.05533 | -74.80104 | 34909 ft | 463 kts | 357° |
| 2026-05-08 18:12 | 1.11984 | -74.80236 | 34909 ft | 463 kts | 356° |
| 2026-05-08 18:13 | 1.18428 | -74.80360 | 34914 ft | 463 kts | 356° |
| 2026-05-08 18:13 | 1.24824 | -74.80491 | 34915 ft | 463 kts | 356° |
| 2026-05-08 18:14 | 1.31261 | -74.80620 | 34914 ft | 463 kts | 357° |
| 2026-05-08 18:14 | 1.37693 | -74.80753 | 34914 ft | 462 kts | 356° |
| 2026-05-08 18:15 | 1.44124 | -74.80894 | 34915 ft | 462 kts | 356° |
| 2026-05-08 18:15 | 1.50558 | -74.81022 | 34912 ft | 462 kts | 356° |
| 2026-05-08 18:16 | 1.56991 | -74.81156 | 34914 ft | 462 kts | 356° |
| 2026-05-08 18:16 | 1.63424 | -74.81287 | 34911 ft | 463 kts | 355° |
| 2026-05-08 18:17 | 1.69864 | -74.81418 | 34915 ft | 463 kts | 358° |
| 2026-05-08 18:17 | 1.76297 | -74.81544 | 34916 ft | 463 kts | 356° |
| 2026-05-08 18:18 | 1.82740 | -74.81684 | 34923 ft | 463 kts | 356° |
| 2026-05-08 18:18 | 1.89174 | -74.81817 | 34927 ft | 462 kts | 357° |
| 2026-05-08 18:19 | 1.95563 | -74.81947 | 34932 ft | 462 kts | 357° |
| 2026-05-08 18:19 | 2.01993 | -74.82080 | 34930 ft | 462 kts | 356° |
| 2026-05-08 18:20 | 2.08461 | -74.82203 | 34944 ft | 462 kts | 357° |
| 2026-05-08 18:20 | 2.14847 | -74.82326 | 34944 ft | 462 kts | 358° |
| 2026-05-08 18:21 | 2.21268 | -74.82462 | 34967 ft | 462 kts | 358° |
| 2026-05-08 18:21 | 2.27702 | -74.82595 | 34966 ft | 462 kts | 356° |
| 2026-05-08 18:22 | 2.34120 | -74.82731 | 34968 ft | 462 kts | 356° |
| 2026-05-08 18:22 | 2.40545 | -74.82861 | 34991 ft | 461 kts | 355° |
| 2026-05-08 18:23 | 2.46961 | -74.82994 | 34989 ft | 461 kts | 358° |
| 2026-05-08 18:23 | 2.53380 | -74.83126 | 35004 ft | 461 kts | 358° |
| 2026-05-08 18:24 | 2.59796 | -74.83260 | 35002 ft | 461 kts | 358° |
| 2026-05-08 18:24 | 2.66219 | -74.83396 | 35002 ft | 461 kts | 356° |
| 2026-05-08 18:25 | 2.72643 | -74.83530 | 35003 ft | 462 kts | 356° |
| 2026-05-08 18:25 | 2.79072 | -74.83657 | 35003 ft | 462 kts | 357° |
| 2026-05-08 18:26 | 2.85493 | -74.83791 | 34991 ft | 462 kts | 357° |
| 2026-05-08 18:26 | 2.91914 | -74.83923 | 34988 ft | 462 kts | 357° |
| 2026-05-08 18:27 | 2.97260 | -74.84029 | 34970 ft | 462 kts | 356° |
| 2026-05-08 18:27 | 3.04731 | -74.84183 | 34972 ft | 462 kts | 358° |
| 2026-05-08 18:28 | 3.11170 | -74.84315 | 34961 ft | 462 kts | 356° |
| 2026-05-08 18:28 | 3.17600 | -74.84450 | 34962 ft | 462 kts | 356° |
| 2026-05-08 18:29 | 3.24033 | -74.84580 | 34961 ft | 462 kts | 357° |
| 2026-05-08 18:29 | 3.30456 | -74.84714 | 34950 ft | 462 kts | 357° |
| 2026-05-08 18:30 | 3.36893 | -74.84845 | 34950 ft | 462 kts | 356° |
| 2026-05-08 18:30 | 3.43319 | -74.84981 | 34940 ft | 462 kts | 357° |
| 2026-05-08 18:31 | 3.49749 | -74.85115 | 34940 ft | 462 kts | 356° |
| 2026-05-08 18:31 | 3.56174 | -74.85243 | 34939 ft | 462 kts | 357° |
| 2026-05-08 18:32 | 3.62606 | -74.85377 | 34937 ft | 462 kts | 356° |
| 2026-05-08 18:32 | 3.69031 | -74.85515 | 34933 ft | 462 kts | 357° |
| 2026-05-08 18:33 | 3.75447 | -74.85654 | 34946 ft | 460 kts | 358° |
| 2026-05-08 18:33 | 3.81839 | -74.85780 | 34947 ft | 459 kts | 357° |
| 2026-05-08 18:34 | 3.88221 | -74.85903 | 34935 ft | 458 kts | 358° |
| 2026-05-08 18:34 | 3.94595 | -74.86037 | 34931 ft | 458 kts | 358° |
| 2026-05-08 18:35 | 4.00923 | -74.86171 | 34925 ft | 458 kts | 357° |
| 2026-05-08 18:35 | 4.07303 | -74.86302 | 34922 ft | 458 kts | 358° |
| 2026-05-08 18:36 | 4.13672 | -74.86430 | 34939 ft | 458 kts | 358° |
| 2026-05-08 18:36 | 4.19958 | -74.87156 | 34937 ft | 454 kts | 343° |
| 2026-05-08 18:37 | 4.25770 | -74.89581 | 34876 ft | 453 kts | 334° |
| 2026-05-08 18:37 | 4.31486 | -74.92241 | 34883 ft | 453 kts | 334° |
| 2026-05-08 18:38 | 4.37211 | -74.94884 | 34895 ft | 453 kts | 334° |
| 2026-05-08 18:38 | 4.42938 | -74.97519 | 34923 ft | 453 kts | 334° |
| 2026-05-08 18:39 | 4.48654 | -75.00162 | 34998 ft | 453 kts | 334° |
| 2026-05-08 18:39 | 4.54379 | -75.02816 | 34929 ft | 454 kts | 334° |
| 2026-05-08 18:40 | 4.57243 | -75.04143 | 34702 ft | 454 kts | 334° |
| 2026-05-08 18:40 | 4.60108 | -75.05471 | 34474 ft | 455 kts | 334° |
| 2026-05-08 18:40 | 4.62986 | -75.06806 | 34273 ft | 456 kts | 334° |
| 2026-05-08 18:40 | 4.65866 | -75.08140 | 34053 ft | 457 kts | 334° |
| 2026-05-08 18:41 | 4.68754 | -75.09478 | 33809 ft | 458 kts | 334° |
| 2026-05-08 18:41 | 4.71649 | -75.10820 | 33578 ft | 459 kts | 334° |
| 2026-05-08 18:41 | 4.74558 | -75.12170 | 33301 ft | 461 kts | 334° |
| 2026-05-08 18:41 | 4.77490 | -75.13531 | 32280 ft | 469 kts | 334° |
| 2026-05-08 18:42 | 4.80446 | -75.14901 | 31687 ft | 466 kts | 334° |
| 2026-05-08 18:42 | 4.83379 | -75.16256 | 31082 ft | 463 kts | 334° |
| 2026-05-08 18:42 | 4.86298 | -75.17605 | 30470 ft | 462 kts | 334° |
| 2026-05-08 18:42 | 4.89216 | -75.18955 | 29792 ft | 461 kts | 334° |
| 2026-05-08 18:43 | 4.92116 | -75.20299 | 29177 ft | 458 kts | 334° |
| 2026-05-08 18:43 | 4.94956 | -75.21617 | 28703 ft | 454 kts | 334° |
| 2026-05-08 18:43 | 4.97814 | -75.22943 | 28109 ft | 451 kts | 334° |
| 2026-05-08 18:43 | 5.00651 | -75.24259 | 27525 ft | 448 kts | 334° |
| 2026-05-08 18:44 | 5.03476 | -75.25565 | 26934 ft | 445 kts | 334° |
| 2026-05-08 18:44 | 5.06281 | -75.26864 | 26359 ft | 443 kts | 334° |
| 2026-05-08 18:44 | 5.09067 | -75.28157 | 25775 ft | 440 kts | 334° |
| 2026-05-08 18:44 | 5.11839 | -75.29445 | 25236 ft | 437 kts | 335° |
| 2026-05-08 18:45 | 5.14580 | -75.30719 | 24691 ft | 434 kts | 335° |
| 2026-05-08 18:45 | 5.17312 | -75.31986 | 24140 ft | 430 kts | 335° |
| 2026-05-08 18:45 | 5.20018 | -75.33239 | 23590 ft | 427 kts | 335° |
| 2026-05-08 18:45 | 5.22696 | -75.34480 | 23059 ft | 421 kts | 335° |
| 2026-05-08 18:46 | 5.25345 | -75.35708 | 22548 ft | 416 kts | 335° |
| 2026-05-08 18:46 | 5.27959 | -75.36922 | 22059 ft | 411 kts | 335° |
| 2026-05-08 18:46 | 5.30544 | -75.38121 | 21551 ft | 407 kts | 335° |
| 2026-05-08 18:46 | 5.33130 | -75.39241 | 21014 ft | 403 kts | 341° |
| 2026-05-08 18:47 | 5.35846 | -75.39882 | 20487 ft | 400 kts | 353° |
| 2026-05-08 18:47 | 5.38613 | -75.40072 | 19952 ft | 398 kts | 357° |
| 2026-05-08 18:47 | 5.41375 | -75.40220 | 19432 ft | 397 kts | 357° |
| 2026-05-08 18:47 | 5.44129 | -75.40369 | 18907 ft | 396 kts | 357° |
| 2026-05-08 18:48 | 5.46874 | -75.40518 | 18356 ft | 395 kts | 357° |
| 2026-05-08 18:48 | 5.49621 | -75.40669 | 17769 ft | 394 kts | 357° |
| 2026-05-08 18:48 | 5.52360 | -75.40819 | 17014 ft | 397 kts | 358° |
| 2026-05-08 18:48 | 5.55080 | -75.40968 | 16336 ft | 385 kts | 357° |
| 2026-05-08 18:49 | 5.57712 | -75.41113 | 15790 ft | 371 kts | 357° |
| 2026-05-08 18:49 | 5.60235 | -75.41254 | 15481 ft | 354 kts | 357° |
| 2026-05-08 18:49 | 5.61833 | -75.41345 | 15288 ft | 342 kts | 357° |
| 2026-05-08 18:49 | 5.64180 | -75.41478 | 14769 ft | 335 kts | 357° |
| 2026-05-08 18:50 | 5.66503 | -75.41605 | 14304 ft | 336 kts | 357° |
| 2026-05-08 18:50 | 5.68847 | -75.41733 | 13851 ft | 338 kts | 358° |
| 2026-05-08 18:50 | 5.71180 | -75.41861 | 13391 ft | 331 kts | 358° |
| 2026-05-08 18:50 | 5.73435 | -75.41989 | 13030 ft | 318 kts | 358° |
| 2026-05-08 18:51 | 5.75580 | -75.42111 | 12883 ft | 300 kts | 357° |
| 2026-05-08 18:51 | 5.77601 | -75.42224 | 12755 ft | 282 kts | 358° |
| 2026-05-08 18:51 | 5.79524 | -75.42278 | 12483 ft | 272 kts | 0° |
| 2026-05-08 18:51 | 5.81398 | -75.42280 | 12118 ft | 268 kts | 2° |
| 2026-05-08 18:52 | 5.83271 | -75.42263 | 11820 ft | 269 kts | 2° |
| 2026-05-08 18:52 | 5.85154 | -75.42245 | 11489 ft | 271 kts | 2° |
| 2026-05-08 18:52 | 5.87043 | -75.42230 | 11156 ft | 272 kts | 2° |
| 2026-05-08 18:52 | 5.88932 | -75.42222 | 10891 ft | 271 kts | 1° |
| 2026-05-08 18:53 | 5.90798 | -75.42223 | 10753 ft | 264 kts | 1° |
| 2026-05-08 18:53 | 5.92606 | -75.42225 | 10659 ft | 256 kts | 2° |
| 2026-05-08 18:53 | 5.94331 | -75.42187 | 10542 ft | 247 kts | 2° |
| 2026-05-08 18:53 | 5.96014 | -75.42179 | 10487 ft | 236 kts | 1° |
| 2026-05-08 18:54 | 5.97627 | -75.42189 | 10273 ft | 229 kts | 0° |
| 2026-05-08 18:54 | 5.99201 | -75.42200 | 10005 ft | 224 kts | 2° |
| 2026-05-08 18:54 | 6.00746 | -75.42210 | 9726 ft | 220 kts | 2° |
| 2026-05-08 18:54 | 6.02265 | -75.42220 | 9454 ft | 216 kts | 1° |
| 2026-05-08 18:55 | 6.05165 | -75.42240 | 8955 ft | 193 kts | 2° |
| 2026-05-08 18:55 | 6.06458 | -75.42248 | 8711 ft | 179 kts | 1° |
| 2026-05-08 18:55 | 6.07667 | -75.42256 | 8496 ft | 169 kts | 1° |
| 2026-05-08 18:56 | 6.08836 | -75.42263 | 8280 ft | 167 kts | 1° |
| 2026-05-08 18:56 | 6.09989 | -75.42270 | 8074 ft | 165 kts | 1° |
| 2026-05-08 18:56 | 6.11130 | -75.42278 | 7840 ft | 163 kts | 1° |
| 2026-05-08 18:56 | 6.12251 | -75.42285 | 7609 ft | 159 kts | 0° |
| 2026-05-08 18:57 | 6.13354 | -75.42291 | 7368 ft | 158 kts | 0° |
| 2026-05-08 18:57 | 6.14439 | -75.42294 | 7132 ft | 155 kts | 1° |
| 2026-05-08 18:57 | 6.15497 | -75.42310 | 7000 ft | 142 kts | 4° |
| 2026-05-08 18:57 | 6.16378 | -75.42310 | 6983 ft | 106 kts | 360° |
| 2026-05-08 18:58 | 6.16945 | -75.42313 | 7006 ft | 58 kts | 359° |
| 2026-05-08 18:58 | 6.17237 | -75.42316 | 7016 ft | 33 kts | 359° |
| 2026-05-08 18:58 | 6.17434 | -75.42318 | 7021 ft | 22 kts | 359° |
| 2026-05-08 18:58 | 6.17557 | -75.42345 | 7027 ft | 16 kts | 298° |